Terminal Aerodrome Forecast
Issued by NWS Atlanta, GA

Home | Current Version | Previous Version | Text Only | Print | Product List | Glossary On
Versions: 1 2 3 4 5 6 7 8 9 10 11 12 13 14 15 16 17 18 19 20 21 22 23 24 25 26 27 28 29 30 31 32 33 34
000
FTAK31 PAJN 012343
TAFAHN
TAF
PAHN 012343Z 0200/0224 14008KT P6SM VCSH SCT018 BKN080
     FM020600 VRB03KT P6SM SCT015 OVC060
     FM021000 00000KT 4SM BR BKN015 OVC050
     FM021200 00000KT 3SM BR VCSH BKN007 OVC015
     FM021500 13004KT 6SM -SHRA BR SCT015 BKN040 OVC060
      AMD LTD TO CLD VIS AND WIND=

USA.gov is the U.S. government's official web portal to all federal, state and local government web resources and services.